sensor_id;sensor_type;location;lat;lon;timestamp;P1;durP1;ratioP1;P2;durP2;ratioP2
69047;SDS011;56119;50.118;8.642;2023-01-29T00:01:04;9.47;;;7.07;;
69047;SDS011;56119;50.118;8.642;2023-01-29T00:03:30;7.50;;;5.90;;
69047;SDS011;56119;50.118;8.642;2023-01-29T00:05:56;9.80;;;5.57;;
69047;SDS011;56119;50.118;8.642;2023-01-29T00:08:23;7.10;;;6.07;;
69047;SDS011;56119;50.118;8.642;2023-01-29T00:10:49;7.17;;;6.27;;
69047;SDS011;56119;50.118;8.642;2023-01-29T00:13:15;11.00;;;6.43;;
69047;SDS011;56119;50.118;8.642;2023-01-29T00:15:41;9.30;;;7.17;;
69047;SDS011;56119;50.118;8.642;2023-01-29T00:18:07;8.37;;;7.00;;
69047;SDS011;56119;50.118;8.642;2023-01-29T00:20:33;9.17;;;6.60;;
69047;SDS011;56119;50.118;8.642;2023-01-29T00:22:59;10.20;;;8.10;;
69047;SDS011;56119;50.118;8.642;2023-01-29T00:25:25;9.37;;;7.57;;
69047;SDS011;56119;50.118;8.642;2023-01-29T00:27:51;8.47;;;7.40;;
69047;SDS011;56119;50.118;8.642;2023-01-29T00:30:17;10.47;;;7.33;;
69047;SDS011;56119;50.118;8.642;2023-01-29T00:32:43;7.97;;;6.97;;
69047;SDS011;56119;50.118;8.642;2023-01-29T00:35:10;9.97;;;7.20;;
69047;SDS011;56119;50.118;8.642;2023-01-29T00:37:36;12.87;;;8.57;;
69047;SDS011;56119;50.118;8.642;2023-01-29T00:40:03;9.33;;;7.77;;
69047;SDS011;56119;50.118;8.642;2023-01-29T00:42:29;11.37;;;8.00;;
69047;SDS011;56119;50.118;8.642;2023-01-29T00:45:14;9.70;;;7.70;;
69047;SDS011;56119;50.118;8.642;2023-01-29T00:47:40;9.47;;;8.43;;
69047;SDS011;56119;50.118;8.642;2023-01-29T00:50:08;12.20;;;9.10;;
69047;SDS011;56119;50.118;8.642;2023-01-29T00:52:34;8.77;;;7.87;;
69047;SDS011;56119;50.118;8.642;2023-01-29T00:55:01;8.57;;;7.03;;
69047;SDS011;56119;50.118;8.642;2023-01-29T00:57:28;9.53;;;7.40;;
69047;SDS011;56119;50.118;8.642;2023-01-29T00:59:54;10.63;;;8.63;;
69047;SDS011;56119;50.118;8.642;2023-01-29T01:02:21;8.60;;;7.53;;
69047;SDS011;56119;50.118;8.642;2023-01-29T01:05:06;9.20;;;7.37;;
69047;SDS011;56119;50.118;8.642;2023-01-29T01:07:37;8.33;;;6.93;;
69047;SDS011;56119;50.118;8.642;2023-01-29T01:10:03;7.53;;;6.40;;
69047;SDS011;56119;50.118;8.642;2023-01-29T01:12:45;8.23;;;5.60;;
69047;SDS011;56119;50.118;8.642;2023-01-29T01:15:11;6.97;;;5.90;;
69047;SDS011;56119;50.118;8.642;2023-01-29T01:17:37;6.13;;;5.53;;
69047;SDS011;56119;50.118;8.642;2023-01-29T01:20:03;8.70;;;6.10;;
69047;SDS011;56119;50.118;8.642;2023-01-29T01:22:30;7.23;;;6.10;;
69047;SDS011;56119;50.118;8.642;2023-01-29T01:24:56;7.27;;;6.10;;
69047;SDS011;56119;50.118;8.642;2023-01-29T01:27:22;8.20;;;6.10;;
69047;SDS011;56119;50.118;8.642;2023-01-29T01:29:49;10.00;;;6.67;;
69047;SDS011;56119;50.118;8.642;2023-01-29T01:32:15;10.10;;;6.83;;
69047;SDS011;56119;50.118;8.642;2023-01-29T01:34:41;8.93;;;6.30;;
69047;SDS011;56119;50.118;8.642;2023-01-29T01:37:09;7.00;;;5.97;;
69047;SDS011;56119;50.118;8.642;2023-01-29T01:39:35;7.10;;;5.60;;
69047;SDS011;56119;50.118;8.642;2023-01-29T01:42:01;7.87;;;6.17;;
69047;SDS011;56119;50.118;8.642;2023-01-29T01:47:12;8.73;;;6.47;;
69047;SDS011;56119;50.118;8.642;2023-01-29T01:49:38;7.73;;;5.77;;
69047;SDS011;56119;50.118;8.642;2023-01-29T01:52:04;9.53;;;7.03;;
69047;SDS011;56119;50.118;8.642;2023-01-29T01:54:30;10.17;;;6.40;;
69047;SDS011;56119;50.118;8.642;2023-01-29T01:56:59;9.80;;;6.63;;
69047;SDS011;56119;50.118;8.642;2023-01-29T01:59:33;10.17;;;6.37;;
69047;SDS011;56119;50.118;8.642;2023-01-29T02:02:00;8.03;;;6.03;;
69047;SDS011;56119;50.118;8.642;2023-01-29T02:04:45;10.17;;;6.53;;
69047;SDS011;56119;50.118;8.642;2023-01-29T02:07:31;8.80;;;6.50;;
69047;SDS011;56119;50.118;8.642;2023-01-29T02:10:15;8.03;;;6.43;;
69047;SDS011;56119;50.118;8.642;2023-01-29T02:12:41;9.10;;;7.17;;
69047;SDS011;56119;50.118;8.642;2023-01-29T02:15:08;8.47;;;7.17;;
69047;SDS011;56119;50.118;8.642;2023-01-29T02:17:34;10.80;;;8.57;;
69047;SDS011;56119;50.118;8.642;2023-01-29T02:28:11;8.80;;;7.00;;
69047;SDS011;56119;50.118;8.642;2023-01-29T02:30:48;10.33;;;7.30;;
69047;SDS011;56119;50.118;8.642;2023-01-29T02:33:21;8.70;;;6.83;;
69047;SDS011;56119;50.118;8.642;2023-01-29T02:43:26;11.30;;;7.23;;
69047;SDS011;56119;50.118;8.642;2023-01-29T02:48:24;10.53;;;8.50;;
69047;SDS011;56119;50.118;8.642;2023-01-29T02:50:59;10.97;;;8.60;;
69047;SDS011;56119;50.118;8.642;2023-01-29T02:56:05;10.70;;;7.87;;
69047;SDS011;56119;50.118;8.642;2023-01-29T02:58:48;11.43;;;8.03;;
69047;SDS011;56119;50.118;8.642;2023-01-29T03:01:19;10.33;;;8.27;;
69047;SDS011;56119;50.118;8.642;2023-01-29T03:03:48;10.57;;;8.23;;
69047;SDS011;56119;50.118;8.642;2023-01-29T03:06:20;10.67;;;8.07;;
69047;SDS011;56119;50.118;8.642;2023-01-29T03:08:52;11.47;;;8.03;;
69047;SDS011;56119;50.118;8.642;2023-01-29T03:11:19;12.33;;;8.50;;
69047;SDS011;56119;50.118;8.642;2023-01-29T03:13:47;10.83;;;8.03;;
69047;SDS011;56119;50.118;8.642;2023-01-29T03:16:25;11.63;;;8.27;;
69047;SDS011;56119;50.118;8.642;2023-01-29T03:18:56;10.37;;;8.10;;
69047;SDS011;56119;50.118;8.642;2023-01-29T03:21:28;12.77;;;9.33;;
69047;SDS011;56119;50.118;8.642;2023-01-29T03:24:15;11.40;;;8.40;;
69047;SDS011;56119;50.118;8.642;2023-01-29T03:27:00;10.77;;;8.73;;
69047;SDS011;56119;50.118;8.642;2023-01-29T03:29:47;10.33;;;7.83;;
69047;SDS011;56119;50.118;8.642;2023-01-29T03:32:32;9.83;;;8.40;;
69047;SDS011;56119;50.118;8.642;2023-01-29T03:35:01;12.97;;;8.87;;
69047;SDS011;56119;50.118;8.642;2023-01-29T03:37:32;12.87;;;9.00;;
69047;SDS011;56119;50.118;8.642;2023-01-29T03:40:03;9.73;;;8.27;;
69047;SDS011;56119;50.118;8.642;2023-01-29T03:49:58;11.07;;;8.93;;
69047;SDS011;56119;50.118;8.642;2023-01-29T03:57:50;10.17;;;8.23;;
69047;SDS011;56119;50.118;8.642;2023-01-29T04:00:18;10.67;;;8.10;;
69047;SDS011;56119;50.118;8.642;2023-01-29T04:05:13;12.00;;;8.73;;
69047;SDS011;56119;50.118;8.642;2023-01-29T04:07:41;11.43;;;8.53;;
69047;SDS011;56119;50.118;8.642;2023-01-29T04:10:14;14.40;;;9.07;;
69047;SDS011;56119;50.118;8.642;2023-01-29T04:12:42;9.20;;;7.37;;
69047;SDS011;56119;50.118;8.642;2023-01-29T04:15:10;11.10;;;8.37;;
69047;SDS011;56119;50.118;8.642;2023-01-29T04:17:39;8.57;;;7.67;;
69047;SDS011;56119;50.118;8.642;2023-01-29T04:20:06;11.27;;;9.03;;
69047;SDS011;56119;50.118;8.642;2023-01-29T04:22:33;11.37;;;8.53;;
69047;SDS011;56119;50.118;8.642;2023-01-29T04:25:01;12.03;;;9.83;;
69047;SDS011;56119;50.118;8.642;2023-01-29T04:30:25;14.47;;;9.40;;
69047;SDS011;56119;50.118;8.642;2023-01-29T04:41:04;14.10;;;10.10;;
69047;SDS011;56119;50.118;8.642;2023-01-29T04:43:44;15.17;;;10.63;;
69047;SDS011;56119;50.118;8.642;2023-01-29T04:46:32;13.67;;;9.47;;
69047;SDS011;56119;50.118;8.642;2023-01-29T04:49:11;13.60;;;10.37;;
69047;SDS011;56119;50.118;8.642;2023-01-29T04:54:26;14.43;;;8.97;;
69047;SDS011;56119;50.118;8.642;2023-01-29T04:57:12;13.27;;;8.83;;
69047;SDS011;56119;50.118;8.642;2023-01-29T04:59:41;11.67;;;8.93;;
69047;SDS011;56119;50.118;8.642;2023-01-29T05:02:08;12.47;;;9.37;;
69047;SDS011;56119;50.118;8.642;2023-01-29T05:04:35;12.17;;;9.27;;
69047;SDS011;56119;50.118;8.642;2023-01-29T05:07:03;16.07;;;9.87;;
69047;SDS011;56119;50.118;8.642;2023-01-29T05:09:32;13.30;;;10.10;;
69047;SDS011;56119;50.118;8.642;2023-01-29T05:11:59;12.57;;;9.37;;
69047;SDS011;56119;50.118;8.642;2023-01-29T05:14:25;13.30;;;9.50;;
69047;SDS011;56119;50.118;8.642;2023-01-29T05:16:52;11.83;;;9.30;;
69047;SDS011;56119;50.118;8.642;2023-01-29T05:19:18;12.93;;;9.43;;
69047;SDS011;56119;50.118;8.642;2023-01-29T05:21:45;14.17;;;9.53;;
69047;SDS011;56119;50.118;8.642;2023-01-29T05:24:13;13.03;;;9.33;;
69047;SDS011;56119;50.118;8.642;2023-01-29T05:26:41;13.37;;;9.63;;
69047;SDS011;56119;50.118;8.642;2023-01-29T05:29:25;12.90;;;9.23;;
69047;SDS011;56119;50.118;8.642;2023-01-29T05:31:51;13.20;;;9.20;;
69047;SDS011;56119;50.118;8.642;2023-01-29T05:34:18;12.60;;;9.60;;
69047;SDS011;56119;50.118;8.642;2023-01-29T05:36:43;14.80;;;10.47;;
69047;SDS011;56119;50.118;8.642;2023-01-29T05:39:09;12.50;;;9.67;;
69047;SDS011;56119;50.118;8.642;2023-01-29T05:41:35;15.47;;;10.03;;
69047;SDS011;56119;50.118;8.642;2023-01-29T05:44:01;15.23;;;10.50;;
69047;SDS011;56119;50.118;8.642;2023-01-29T05:46:27;13.77;;;10.50;;
69047;SDS011;56119;50.118;8.642;2023-01-29T05:48:53;12.83;;;10.10;;
69047;SDS011;56119;50.118;8.642;2023-01-29T05:51:19;12.47;;;9.30;;
69047;SDS011;56119;50.118;8.642;2023-01-29T05:53:45;13.40;;;9.57;;
69047;SDS011;56119;50.118;8.642;2023-01-29T05:56:11;12.83;;;9.73;;
69047;SDS011;56119;50.118;8.642;2023-01-29T05:58:37;13.63;;;9.97;;
69047;SDS011;56119;50.118;8.642;2023-01-29T06:01:10;16.87;;;10.80;;
69047;SDS011;56119;50.118;8.642;2023-01-29T06:03:37;14.97;;;10.00;;
69047;SDS011;56119;50.118;8.642;2023-01-29T06:06:03;14.03;;;10.37;;
69047;SDS011;56119;50.118;8.642;2023-01-29T06:08:29;14.23;;;10.23;;
69047;SDS011;56119;50.118;8.642;2023-01-29T06:10:55;13.77;;;10.80;;
69047;SDS011;56119;50.118;8.642;2023-01-29T06:13:20;13.77;;;9.83;;
69047;SDS011;56119;50.118;8.642;2023-01-29T06:15:46;14.37;;;11.13;;
69047;SDS011;56119;50.118;8.642;2023-01-29T06:18:12;13.63;;;10.20;;
69047;SDS011;56119;50.118;8.642;2023-01-29T06:20:38;13.20;;;10.00;;
69047;SDS011;56119;50.118;8.642;2023-01-29T06:23:04;14.47;;;10.60;;
69047;SDS011;56119;50.118;8.642;2023-01-29T06:25:30;14.13;;;9.90;;
69047;SDS011;56119;50.118;8.642;2023-01-29T06:27:59;16.50;;;10.00;;
69047;SDS011;56119;50.118;8.642;2023-01-29T06:30:25;13.97;;;10.40;;
69047;SDS011;56119;50.118;8.642;2023-01-29T06:32:55;14.03;;;9.83;;
69047;SDS011;56119;50.118;8.642;2023-01-29T06:35:25;14.67;;;9.77;;
69047;SDS011;56119;50.118;8.642;2023-01-29T06:37:52;14.23;;;10.30;;
69047;SDS011;56119;50.118;8.642;2023-01-29T06:40:18;15.53;;;10.83;;
69047;SDS011;56119;50.118;8.642;2023-01-29T06:42:44;17.90;;;11.30;;
69047;SDS011;56119;50.118;8.642;2023-01-29T06:45:10;16.83;;;12.40;;
69047;SDS011;56119;50.118;8.642;2023-01-29T06:47:36;13.50;;;10.77;;
69047;SDS011;56119;50.118;8.642;2023-01-29T06:50:02;14.40;;;10.77;;
69047;SDS011;56119;50.118;8.642;2023-01-29T06:52:28;15.43;;;11.63;;
69047;SDS011;56119;50.118;8.642;2023-01-29T06:54:54;13.70;;;10.73;;
69047;SDS011;56119;50.118;8.642;2023-01-29T06:57:21;15.47;;;11.30;;
69047;SDS011;56119;50.118;8.642;2023-01-29T06:59:47;14.00;;;10.83;;
69047;SDS011;56119;50.118;8.642;2023-01-29T07:02:13;13.70;;;10.60;;
69047;SDS011;56119;50.118;8.642;2023-01-29T07:04:39;16.43;;;11.97;;
69047;SDS011;56119;50.118;8.642;2023-01-29T07:07:06;17.80;;;12.20;;
69047;SDS011;56119;50.118;8.642;2023-01-29T07:09:40;17.60;;;12.47;;
69047;SDS011;56119;50.118;8.642;2023-01-29T07:12:07;18.43;;;12.30;;
69047;SDS011;56119;50.118;8.642;2023-01-29T07:14:33;18.50;;;11.37;;
69047;SDS011;56119;50.118;8.642;2023-01-29T07:16:59;17.33;;;11.43;;
69047;SDS011;56119;50.118;8.642;2023-01-29T07:19:25;17.30;;;12.47;;
69047;SDS011;56119;50.118;8.642;2023-01-29T07:21:51;18.33;;;12.13;;
69047;SDS011;56119;50.118;8.642;2023-01-29T07:24:17;15.57;;;11.23;;
69047;SDS011;56119;50.118;8.642;2023-01-29T07:26:43;17.47;;;11.80;;
69047;SDS011;56119;50.118;8.642;2023-01-29T07:29:09;18.63;;;12.90;;
69047;SDS011;56119;50.118;8.642;2023-01-29T07:31:35;16.57;;;12.13;;
69047;SDS011;56119;50.118;8.642;2023-01-29T07:34:01;17.53;;;11.93;;
69047;SDS011;56119;50.118;8.642;2023-01-29T07:36:27;18.07;;;12.53;;
69047;SDS011;56119;50.118;8.642;2023-01-29T07:38:53;18.13;;;13.30;;
69047;SDS011;56119;50.118;8.642;2023-01-29T07:41:19;20.13;;;13.53;;
69047;SDS011;56119;50.118;8.642;2023-01-29T07:43:46;22.17;;;14.37;;
69047;SDS011;56119;50.118;8.642;2023-01-29T07:46:12;19.37;;;13.70;;
69047;SDS011;56119;50.118;8.642;2023-01-29T07:48:38;23.23;;;13.90;;
69047;SDS011;56119;50.118;8.642;2023-01-29T07:51:04;20.63;;;14.97;;
69047;SDS011;56119;50.118;8.642;2023-01-29T07:53:30;18.40;;;13.33;;
69047;SDS011;56119;50.118;8.642;2023-01-29T07:55:59;19.50;;;12.73;;
69047;SDS011;56119;50.118;8.642;2023-01-29T07:58:25;24.03;;;14.73;;
69047;SDS011;56119;50.118;8.642;2023-01-29T08:00:51;18.97;;;13.37;;
69047;SDS011;56119;50.118;8.642;2023-01-29T08:03:18;18.23;;;13.47;;
69047;SDS011;56119;50.118;8.642;2023-01-29T08:05:44;18.27;;;13.27;;
69047;SDS011;56119;50.118;8.642;2023-01-29T08:08:11;20.23;;;13.20;;
69047;SDS011;56119;50.118;8.642;2023-01-29T08:10:37;18.80;;;13.20;;
69047;SDS011;56119;50.118;8.642;2023-01-29T08:13:04;18.03;;;12.77;;
69047;SDS011;56119;50.118;8.642;2023-01-29T08:15:30;18.70;;;12.60;;
69047;SDS011;56119;50.118;8.642;2023-01-29T08:17:56;20.00;;;12.17;;
69047;SDS011;56119;50.118;8.642;2023-01-29T08:20:22;17.70;;;12.17;;
69047;SDS011;56119;50.118;8.642;2023-01-29T08:22:48;17.57;;;11.87;;
69047;SDS011;56119;50.118;8.642;2023-01-29T08:25:14;19.20;;;12.47;;
69047;SDS011;56119;50.118;8.642;2023-01-29T08:27:41;18.53;;;12.77;;
69047;SDS011;56119;50.118;8.642;2023-01-29T08:30:07;20.87;;;13.63;;
69047;SDS011;56119;50.118;8.642;2023-01-29T08:32:34;18.77;;;12.70;;
69047;SDS011;56119;50.118;8.642;2023-01-29T08:35:00;19.23;;;12.70;;
69047;SDS011;56119;50.118;8.642;2023-01-29T08:37:25;18.97;;;12.30;;
69047;SDS011;56119;50.118;8.642;2023-01-29T08:39:51;17.97;;;12.70;;
69047;SDS011;56119;50.118;8.642;2023-01-29T08:42:17;20.63;;;13.33;;
69047;SDS011;56119;50.118;8.642;2023-01-29T08:44:43;19.43;;;12.87;;
69047;SDS011;56119;50.118;8.642;2023-01-29T08:47:09;17.97;;;12.00;;
69047;SDS011;56119;50.118;8.642;2023-01-29T08:49:35;17.23;;;11.97;;
69047;SDS011;56119;50.118;8.642;2023-01-29T08:52:01;17.90;;;12.37;;
69047;SDS011;56119;50.118;8.642;2023-01-29T08:54:27;15.40;;;11.30;;
69047;SDS011;56119;50.118;8.642;2023-01-29T08:56:53;18.00;;;12.57;;
69047;SDS011;56119;50.118;8.642;2023-01-29T08:59:19;16.17;;;12.50;;
69047;SDS011;56119;50.118;8.642;2023-01-29T09:01:46;14.00;;;10.87;;
69047;SDS011;56119;50.118;8.642;2023-01-29T09:04:12;14.40;;;10.50;;
69047;SDS011;56119;50.118;8.642;2023-01-29T09:06:38;15.43;;;11.63;;
69047;SDS011;56119;50.118;8.642;2023-01-29T09:09:04;15.33;;;10.67;;
69047;SDS011;56119;50.118;8.642;2023-01-29T09:11:30;17.90;;;12.53;;
69047;SDS011;56119;50.118;8.642;2023-01-29T09:13:56;15.50;;;11.07;;
69047;SDS011;56119;50.118;8.642;2023-01-29T09:16:22;15.27;;;10.33;;
69047;SDS011;56119;50.118;8.642;2023-01-29T09:18:48;15.70;;;11.43;;
69047;SDS011;56119;50.118;8.642;2023-01-29T09:21:14;14.93;;;10.27;;
69047;SDS011;56119;50.118;8.642;2023-01-29T09:23:40;13.00;;;10.07;;
69047;SDS011;56119;50.118;8.642;2023-01-29T09:26:06;13.23;;;10.00;;
69047;SDS011;56119;50.118;8.642;2023-01-29T09:28:33;13.77;;;9.93;;
69047;SDS011;56119;50.118;8.642;2023-01-29T09:31:01;14.33;;;10.50;;
69047;SDS011;56119;50.118;8.642;2023-01-29T09:33:28;14.80;;;10.23;;
69047;SDS011;56119;50.118;8.642;2023-01-29T09:35:55;13.50;;;10.17;;
69047;SDS011;56119;50.118;8.642;2023-01-29T09:38:21;12.97;;;10.07;;
69047;SDS011;56119;50.118;8.642;2023-01-29T09:43:22;15.20;;;11.33;;
69047;SDS011;56119;50.118;8.642;2023-01-29T09:45:57;14.73;;;10.57;;
69047;SDS011;56119;50.118;8.642;2023-01-29T09:48:25;13.30;;;10.20;;
69047;SDS011;56119;50.118;8.642;2023-01-29T09:50:52;17.37;;;11.30;;
69047;SDS011;56119;50.118;8.642;2023-01-29T09:53:39;14.87;;;11.07;;
69047;SDS011;56119;50.118;8.642;2023-01-29T09:56:13;16.43;;;12.00;;
69047;SDS011;56119;50.118;8.642;2023-01-29T09:58:42;17.20;;;12.23;;
69047;SDS011;56119;50.118;8.642;2023-01-29T10:06:36;15.83;;;11.33;;
69047;SDS011;56119;50.118;8.642;2023-01-29T10:12:03;17.93;;;11.70;;
69047;SDS011;56119;50.118;8.642;2023-01-29T10:17:28;15.87;;;11.30;;
69047;SDS011;56119;50.118;8.642;2023-01-29T10:25:01;18.70;;;12.67;;
69047;SDS011;56119;50.118;8.642;2023-01-29T10:27:32;18.27;;;12.20;;
69047;SDS011;56119;50.118;8.642;2023-01-29T10:29:58;15.47;;;11.37;;
69047;SDS011;56119;50.118;8.642;2023-01-29T10:32:25;20.10;;;12.77;;
69047;SDS011;56119;50.118;8.642;2023-01-29T10:34:59;18.60;;;12.47;;
69047;SDS011;56119;50.118;8.642;2023-01-29T10:37:38;17.20;;;12.33;;
69047;SDS011;56119;50.118;8.642;2023-01-29T10:42:57;18.80;;;12.87;;
69047;SDS011;56119;50.118;8.642;2023-01-29T10:45:37;17.20;;;12.20;;
69047;SDS011;56119;50.118;8.642;2023-01-29T10:53:42;16.67;;;12.40;;
69047;SDS011;56119;50.118;8.642;2023-01-29T11:01:36;18.20;;;13.83;;
69047;SDS011;56119;50.118;8.642;2023-01-29T11:04:03;17.43;;;12.70;;
69047;SDS011;56119;50.118;8.642;2023-01-29T11:06:30;19.67;;;13.37;;
69047;SDS011;56119;50.118;8.642;2023-01-29T11:09:11;18.17;;;12.03;;
69047;SDS011;56119;50.118;8.642;2023-01-29T11:11:49;17.43;;;13.00;;
69047;SDS011;56119;50.118;8.642;2023-01-29T11:14:21;17.30;;;12.67;;
69047;SDS011;56119;50.118;8.642;2023-01-29T11:16:49;16.50;;;12.90;;
69047;SDS011;56119;50.118;8.642;2023-01-29T11:19:16;18.23;;;13.48;;
69047;SDS011;56119;50.118;8.642;2023-01-29T11:21:52;15.85;;;12.60;;
69047;SDS011;56119;50.118;8.642;2023-01-29T11:24:21;19.50;;;14.05;;
69047;SDS011;56119;50.118;8.642;2023-01-29T11:26:47;17.25;;;13.02;;
69047;SDS011;56119;50.118;8.642;2023-01-29T11:31:52;18.08;;;13.45;;
69047;SDS011;56119;50.118;8.642;2023-01-29T11:34:19;15.32;;;12.32;;
69047;SDS011;56119;50.118;8.642;2023-01-29T11:36:55;18.98;;;12.70;;
69047;SDS011;56119;50.118;8.642;2023-01-29T11:39:21;14.97;;;11.90;;
69047;SDS011;56119;50.118;8.642;2023-01-29T11:42:01;16.20;;;12.70;;
69047;SDS011;56119;50.118;8.642;2023-01-29T11:44:33;15.97;;;12.53;;
69047;SDS011;56119;50.118;8.642;2023-01-29T11:47:16;19.13;;;12.77;;
69047;SDS011;56119;50.118;8.642;2023-01-29T11:49:47;19.90;;;13.03;;
69047;SDS011;56119;50.118;8.642;2023-01-29T11:52:14;20.13;;;13.77;;
69047;SDS011;56119;50.118;8.642;2023-01-29T11:54:48;17.67;;;12.87;;
69047;SDS011;56119;50.118;8.642;2023-01-29T11:57:34;18.33;;;13.20;;
69047;SDS011;56119;50.118;8.642;2023-01-29T12:00:04;17.03;;;12.00;;
69047;SDS011;56119;50.118;8.642;2023-01-29T12:02:35;20.60;;;13.57;;
69047;SDS011;56119;50.118;8.642;2023-01-29T12:05:21;18.00;;;13.93;;
69047;SDS011;56119;50.118;8.642;2023-01-29T12:07:48;19.93;;;14.13;;
69047;SDS011;56119;50.118;8.642;2023-01-29T12:13:25;17.40;;;13.60;;
69047;SDS011;56119;50.118;8.642;2023-01-29T12:16:12;18.20;;;14.33;;
69047;SDS011;56119;50.118;8.642;2023-01-29T12:18:41;18.52;;;13.45;;
69047;SDS011;56119;50.118;8.642;2023-01-29T12:21:13;16.60;;;12.30;;
69047;SDS011;56119;50.118;8.642;2023-01-29T12:26:15;19.08;;;13.15;;
69047;SDS011;56119;50.118;8.642;2023-01-29T12:31:44;16.77;;;12.17;;
69047;SDS011;56119;50.118;8.642;2023-01-29T12:39:40;17.27;;;12.67;;
69047;SDS011;56119;50.118;8.642;2023-01-29T12:42:11;20.20;;;12.63;;
69047;SDS011;56119;50.118;8.642;2023-01-29T12:44:46;17.10;;;12.17;;
69047;SDS011;56119;50.118;8.642;2023-01-29T12:47:15;16.13;;;12.30;;
69047;SDS011;56119;50.118;8.642;2023-01-29T12:49:43;15.27;;;11.00;;
69047;SDS011;56119;50.118;8.642;2023-01-29T12:52:14;18.03;;;11.60;;
69047;SDS011;56119;50.118;8.642;2023-01-29T12:57:17;15.17;;;11.90;;
69047;SDS011;56119;50.118;8.642;2023-01-29T12:59:46;15.77;;;11.80;;
69047;SDS011;56119;50.118;8.642;2023-01-29T13:02:57;16.83;;;11.53;;
69047;SDS011;56119;50.118;8.642;2023-01-29T13:05:15;17.97;;;11.80;;
69047;SDS011;56119;50.118;8.642;2023-01-29T13:07:43;17.47;;;11.97;;
69047;SDS011;56119;50.118;8.642;2023-01-29T13:10:16;16.47;;;12.07;;
69047;SDS011;56119;50.118;8.642;2023-01-29T13:12:54;17.43;;;11.97;;
69047;SDS011;56119;50.118;8.642;2023-01-29T13:15:23;14.93;;;11.40;;
69047;SDS011;56119;50.118;8.642;2023-01-29T13:17:53;13.63;;;10.93;;
69047;SDS011;56119;50.118;8.642;2023-01-29T13:20:28;12.90;;;10.20;;
69047;SDS011;56119;50.118;8.642;2023-01-29T13:22:55;17.03;;;11.43;;
69047;SDS011;56119;50.118;8.642;2023-01-29T13:25:23;15.70;;;11.77;;
69047;SDS011;56119;50.118;8.642;2023-01-29T13:27:49;12.97;;;10.20;;
69047;SDS011;56119;50.118;8.642;2023-01-29T13:30:36;13.63;;;9.57;;
69047;SDS011;56119;50.118;8.642;2023-01-29T13:33:02;14.37;;;10.70;;
69047;SDS011;56119;50.118;8.642;2023-01-29T13:35:41;14.97;;;11.50;;
69047;SDS011;56119;50.118;8.642;2023-01-29T13:38:24;15.03;;;11.33;;
69047;SDS011;56119;50.118;8.642;2023-01-29T13:40:51;14.07;;;9.90;;
69047;SDS011;56119;50.118;8.642;2023-01-29T13:43:20;14.50;;;10.43;;
69047;SDS011;56119;50.118;8.642;2023-01-29T13:45:47;13.10;;;10.23;;
69047;SDS011;56119;50.118;8.642;2023-01-29T13:50:44;15.97;;;11.00;;
69047;SDS011;56119;50.118;8.642;2023-01-29T13:53:17;16.60;;;11.03;;
69047;SDS011;56119;50.118;8.642;2023-01-29T13:55:45;13.13;;;10.90;;
69047;SDS011;56119;50.118;8.642;2023-01-29T13:58:15;14.30;;;10.97;;
69047;SDS011;56119;50.118;8.642;2023-01-29T14:10:34;17.87;;;12.17;;
69047;SDS011;56119;50.118;8.642;2023-01-29T14:15:33;16.10;;;11.53;;
69047;SDS011;56119;50.118;8.642;2023-01-29T14:20:52;15.80;;;11.23;;
69047;SDS011;56119;50.118;8.642;2023-01-29T14:23:39;15.03;;;10.67;;
69047;SDS011;56119;50.118;8.642;2023-01-29T14:28:55;16.33;;;11.47;;
69047;SDS011;56119;50.118;8.642;2023-01-29T14:34:01;15.80;;;11.90;;
69047;SDS011;56119;50.118;8.642;2023-01-29T14:36:28;16.93;;;11.43;;
69047;SDS011;56119;50.118;8.642;2023-01-29T14:38:55;13.83;;;10.43;;
69047;SDS011;56119;50.118;8.642;2023-01-29T14:41:28;13.47;;;10.60;;
69047;SDS011;56119;50.118;8.642;2023-01-29T14:46:40;12.87;;;10.07;;
69047;SDS011;56119;50.118;8.642;2023-01-29T14:49:07;10.80;;;9.10;;
69047;SDS011;56119;50.118;8.642;2023-01-29T14:51:35;14.50;;;10.40;;
69047;SDS011;56119;50.118;8.642;2023-01-29T14:54:12;14.47;;;10.47;;
69047;SDS011;56119;50.118;8.642;2023-01-29T15:01:38;13.50;;;10.40;;
69047;SDS011;56119;50.118;8.642;2023-01-29T15:04:06;15.17;;;11.00;;
69047;SDS011;56119;50.118;8.642;2023-01-29T15:06:45;14.60;;;10.77;;
69047;SDS011;56119;50.118;8.642;2023-01-29T15:12:02;16.30;;;10.50;;
69047;SDS011;56119;50.118;8.642;2023-01-29T15:14:31;14.20;;;10.40;;
69047;SDS011;56119;50.118;8.642;2023-01-29T15:19:40;13.63;;;10.67;;
69047;SDS011;56119;50.118;8.642;2023-01-29T15:24:36;12.87;;;10.07;;
69047;SDS011;56119;50.118;8.642;2023-01-29T15:27:02;12.27;;;8.97;;
69047;SDS011;56119;50.118;8.642;2023-01-29T15:29:28;14.70;;;10.17;;
69047;SDS011;56119;50.118;8.642;2023-01-29T15:31:55;12.47;;;9.27;;
69047;SDS011;56119;50.118;8.642;2023-01-29T15:34:21;15.33;;;10.63;;
69047;SDS011;56119;50.118;8.642;2023-01-29T15:36:48;14.10;;;9.87;;
69047;SDS011;56119;50.118;8.642;2023-01-29T15:39:15;13.30;;;9.93;;
69047;SDS011;56119;50.118;8.642;2023-01-29T15:41:41;13.77;;;10.07;;
69047;SDS011;56119;50.118;8.642;2023-01-29T15:44:11;11.07;;;8.97;;
69047;SDS011;56119;50.118;8.642;2023-01-29T15:46:38;13.90;;;10.10;;
69047;SDS011;56119;50.118;8.642;2023-01-29T15:49:06;14.53;;;9.73;;
69047;SDS011;56119;50.118;8.642;2023-01-29T15:51:33;12.40;;;9.33;;
69047;SDS011;56119;50.118;8.642;2023-01-29T15:54:01;13.00;;;9.33;;
69047;SDS011;56119;50.118;8.642;2023-01-29T15:56:28;14.67;;;9.73;;
69047;SDS011;56119;50.118;8.642;2023-01-29T15:58:56;12.63;;;9.23;;
69047;SDS011;56119;50.118;8.642;2023-01-29T16:01:27;11.73;;;9.20;;
69047;SDS011;56119;50.118;8.642;2023-01-29T16:03:53;13.07;;;9.97;;
69047;SDS011;56119;50.118;8.642;2023-01-29T16:06:19;12.97;;;10.03;;
69047;SDS011;56119;50.118;8.642;2023-01-29T16:08:48;12.77;;;9.60;;
69047;SDS011;56119;50.118;8.642;2023-01-29T16:11:16;14.30;;;9.63;;
69047;SDS011;56119;50.118;8.642;2023-01-29T16:13:42;13.50;;;9.63;;
69047;SDS011;56119;50.118;8.642;2023-01-29T16:18:38;15.63;;;10.17;;
69047;SDS011;56119;50.118;8.642;2023-01-29T16:21:06;13.57;;;10.40;;
69047;SDS011;56119;50.118;8.642;2023-01-29T16:23:34;14.33;;;9.77;;
69047;SDS011;56119;50.118;8.642;2023-01-29T16:26:03;14.17;;;10.73;;
69047;SDS011;56119;50.118;8.642;2023-01-29T16:28:30;13.50;;;9.97;;
69047;SDS011;56119;50.118;8.642;2023-01-29T16:30:57;14.03;;;9.70;;
69047;SDS011;56119;50.118;8.642;2023-01-29T16:33:27;16.70;;;11.07;;
69047;SDS011;56119;50.118;8.642;2023-01-29T16:35:55;14.03;;;9.70;;
69047;SDS011;56119;50.118;8.642;2023-01-29T16:38:26;16.20;;;11.13;;
69047;SDS011;56119;50.118;8.642;2023-01-29T16:41:06;16.33;;;10.37;;
69047;SDS011;56119;50.118;8.642;2023-01-29T16:46:02;16.63;;;10.63;;
69047;SDS011;56119;50.118;8.642;2023-01-29T16:48:32;15.83;;;10.93;;
69047;SDS011;56119;50.118;8.642;2023-01-29T16:51:03;15.47;;;11.20;;
69047;SDS011;56119;50.118;8.642;2023-01-29T16:53:29;16.03;;;11.10;;
69047;SDS011;56119;50.118;8.642;2023-01-29T16:55:55;17.97;;;11.33;;
69047;SDS011;56119;50.118;8.642;2023-01-29T16:58:26;17.47;;;11.50;;
69047;SDS011;56119;50.118;8.642;2023-01-29T17:00:56;18.60;;;12.10;;
69047;SDS011;56119;50.118;8.642;2023-01-29T17:03:23;16.27;;;11.87;;
69047;SDS011;56119;50.118;8.642;2023-01-29T17:05:50;16.63;;;10.90;;
69047;SDS011;56119;50.118;8.642;2023-01-29T17:08:19;18.07;;;11.50;;